Time;durP1;ratioP1;P1;durP2;ratioP2;P2;SDS_P1;SDS_P2;PMS_P1;PMS_P2;Temp;Humidity;BMP_temperature;BMP_pressure;BME280_temperature;BME280_humidity;BME280_pressure;Samples;Min_cycle;Max_cycle;Signal;HPM_P1;HPM_P2
2022/01/04 00:01:31;;;;;;;;;;;19.30;54.50;;;;;;5028264;28;42908;-72
2022/01/04 00:03:57;;;;;;;;;;;19.20;54.40;;;;;;5026903;28;43187;-72
2022/01/04 00:06:22;;;;;;;;;;;19.30;54.50;;;;;;5026523;28;43497;-72
2022/01/04 00:08:48;;;;;;;;;;;19.20;54.40;;;;;;5020605;28;43068;-72
2022/01/04 00:11:31;;;;;;;;;;;19.20;54.50;;;;;;5025640;28;43091;-76
2022/01/04 00:13:56;;;;;;;;;;;19.20;54.40;;;;;;5026613;28;43000;-81
2022/01/04 00:16:22;;;;;;;;;;;19.20;54.40;;;;;;5021742;28;43539;-71
2022/01/04 00:18:48;;;;;;;;;;;19.20;54.40;;;;;;5016241;28;42906;-72
2022/01/04 00:21:13;;;;;;;;;;;19.20;54.60;;;;;;5016548;28;43695;-72
2022/01/04 00:23:39;;;;;;;;;;;19.20;54.40;;;;;;5018636;28;43163;-70
2022/01/04 00:26:04;;;;;;;;;;;19.20;54.40;;;;;;5015574;28;43821;-74
2022/01/04 00:28:30;;;;;;;;;;;19.20;54.40;;;;;;5020169;28;43091;-72
2022/01/04 00:30:55;;;;;;;;;;;19.30;54.40;;;;;;5021261;28;43359;-72
2022/01/04 00:33:21;;;;;;;;;;;19.20;54.40;;;;;;5020386;28;43593;-82
2022/01/04 00:35:47;;;;;;;;;;;19.20;54.30;;;;;;5020531;28;44276;-72
2022/01/04 00:38:12;;;;;;;;;;;19.20;54.40;;;;;;5020872;28;43160;-74
2022/01/04 00:40:38;;;;;;;;;;;19.20;54.40;;;;;;5016514;28;44316;-71
2022/01/04 00:43:04;;;;;;;;;;;19.20;54.40;;;;;;5017875;28;42944;-79
2022/01/04 00:45:35;;;;;;;;;;;19.20;54.40;;;;;;5014856;28;43081;-72
2022/01/04 00:50:28;;;;;;;;;;;19.20;54.30;;;;;;5010134;28;43078;-72
2022/01/04 00:52:54;;;;;;;;;;;19.20;54.40;;;;;;5014461;28;42893;-76
2022/01/04 00:55:19;;;;;;;;;;;19.20;54.30;;;;;;5015591;28;42932;-72
2022/01/04 00:57:45;;;;;;;;;;;19.20;54.30;;;;;;5015525;28;42976;-82
2022/01/04 01:00:11;;;;;;;;;;;19.20;54.30;;;;;;5014609;28;43150;-72
2022/01/04 01:02:37;;;;;;;;;;;19.20;54.40;;;;;;5021184;28;42944;-72
2022/01/04 01:05:02;;;;;;;;;;;19.20;54.40;;;;;;5015206;28;43056;-79
2022/01/04 01:07:28;;;;;;;;;;;19.10;54.20;;;;;;5015308;28;43007;-76
2022/01/04 01:12:38;;;;;;;;;;;19.20;54.30;;;;;;5015475;28;43033;-74
2022/01/04 01:15:04;;;;;;;;;;;18.80;55.70;;;;;;4977491;28;44539;-70
2022/01/04 01:17:30;;;;;;;;;;;19.20;54.20;;;;;;5015226;28;43044;-71
2022/01/04 01:19:56;;;;;;;;;;;19.20;54.50;;;;;;5018007;28;43023;-76
2022/01/04 01:22:22;;;;;;;;;;;19.20;54.10;;;;;;5015649;28;43005;-76
2022/01/04 01:24:47;;;;;;;;;;;19.20;54.20;;;;;;5015460;28;43808;-71
2022/01/04 01:27:13;;;;;;;;;;;19.10;54.30;;;;;;5017206;28;43057;-71
2022/01/04 01:29:38;;;;;;;;;;;19.20;54.50;;;;;;5023249;28;42960;-71
2022/01/04 01:32:04;;;;;;;;;;;19.20;54.30;;;;;;5023190;28;43019;-70
2022/01/04 01:34:30;;;;;;;;;;;19.20;54.20;;;;;;5003414;28;45295;-71
2022/01/04 01:36:55;;;;;;;;;;;19.20;54.30;;;;;;5021546;28;42989;-70
2022/01/04 01:39:21;;;;;;;;;;;19.10;54.30;;;;;;5022417;28;42944;-74
2022/01/04 01:41:46;;;;;;;;;;;19.20;54.30;;;;;;5011572;28;43027;-70
2022/01/04 01:44:12;;;;;;;;;;;19.10;54.30;;;;;;5008785;28;43012;-70
2022/01/04 01:46:37;;;;;;;;;;;19.10;54.20;;;;;;5025277;28;42834;-70
2022/01/04 01:49:03;;;;;;;;;;;19.10;54.30;;;;;;5024806;28;43581;-70
2022/01/04 01:51:30;;;;;;;;;;;19.10;54.30;;;;;;5024029;28;42929;-69
2022/01/04 01:53:56;;;;;;;;;;;19.10;54.10;;;;;;5016851;28;43750;-72
2022/01/04 01:56:22;;;;;;;;;;;19.20;54.20;;;;;;5024658;28;42838;-71
2022/01/04 01:58:47;;;;;;;;;;;19.20;54.80;;;;;;5011876;28;43059;-72
2022/01/04 02:01:13;;;;;;;;;;;19.10;54.40;;;;;;5024358;28;42910;-73
2022/01/04 02:03:40;;;;;;;;;;;19.10;54.30;;;;;;5023882;28;43032;-73
2022/01/04 02:06:05;;;;;;;;;;;19.10;54.30;;;;;;5024716;28;43255;-73
2022/01/04 02:08:31;;;;;;;;;;;19.10;54.40;;;;;;5024583;28;44639;-74
2022/01/04 02:10:57;;;;;;;;;;;19.10;54.30;;;;;;5024878;28;43060;-73
2022/01/04 02:13:24;;;;;;;;;;;19.10;54.30;;;;;;5024346;28;43128;-72
2022/01/04 02:15:50;;;;;;;;;;;19.10;54.20;;;;;;5024010;28;43048;-73
2022/01/04 02:18:16;;;;;;;;;;;19.10;54.30;;;;;;5023683;28;44420;-73
2022/01/04 02:20:42;;;;;;;;;;;19.10;54.30;;;;;;5024614;28;42986;-73
2022/01/04 02:23:07;;;;;;;;;;;19.10;54.30;;;;;;5024577;28;42952;-73
2022/01/04 02:25:33;;;;;;;;;;;19.10;54.50;;;;;;5023911;28;43073;-73
2022/01/04 02:27:59;;;;;;;;;;;19.10;54.30;;;;;;5024060;28;43091;-74
2022/01/04 02:30:24;;;;;;;;;;;19.10;54.30;;;;;;5023818;28;43007;-73
2022/01/04 02:32:50;;;;;;;;;;;19.10;54.80;;;;;;5024396;28;43669;-73
2022/01/04 02:35:18;;;;;;;;;;;19.10;54.50;;;;;;5023422;28;42944;-73
2022/01/04 02:37:44;;;;;;;;;;;19.10;54.30;;;;;;5006668;28;43675;-73
2022/01/04 02:40:10;;;;;;;;;;;19.10;54.30;;;;;;5023502;28;42979;-74
2022/01/04 02:42:36;;;;;;;;;;;19.10;54.80;;;;;;5023218;28;43334;-74
2022/01/04 02:45:03;;;;;;;;;;;19.10;54.40;;;;;;5023556;28;43023;-73
2022/01/04 02:47:29;;;;;;;;;;;19.10;54.30;;;;;;5024104;28;42932;-72
2022/01/04 02:49:55;;;;;;;;;;;19.10;54.30;;;;;;5023935;28;42817;-73
2022/01/04 02:52:21;;;;;;;;;;;19.10;54.20;;;;;;5023829;28;43033;-73
2022/01/04 02:54:46;;;;;;;;;;;19.20;54.50;;;;;;5023575;28;43012;-73
2022/01/04 02:57:12;;;;;;;;;;;19.10;54.50;;;;;;5023043;28;43188;-74
2022/01/04 02:59:37;;;;;;;;;;;19.10;54.60;;;;;;5023263;28;43299;-73
2022/01/04 03:02:03;;;;;;;;;;;19.20;55.00;;;;;;5023441;28;43079;-73
2022/01/04 03:04:29;;;;;;;;;;;19.10;54.40;;;;;;5023890;28;42825;-74
2022/01/04 03:06:54;;;;;;;;;;;19.10;54.80;;;;;;5024003;28;43459;-73
2022/01/04 03:09:20;;;;;;;;;;;19.10;54.50;;;;;;5022843;28;43087;-74
2022/01/04 03:11:46;;;;;;;;;;;19.20;54.80;;;;;;5024441;28;43800;-76
2022/01/04 03:14:11;;;;;;;;;;;19.10;54.40;;;;;;5024012;28;43196;-73
2022/01/04 03:16:37;;;;;;;;;;;19.10;54.40;;;;;;5023399;28;43056;-72
2022/01/04 03:19:05;;;;;;;;;;;19.10;54.50;;;;;;5024288;28;42980;-73
2022/01/04 03:21:32;;;;;;;;;;;19.10;54.20;;;;;;5023411;28;43277;-73
2022/01/04 03:23:57;;;;;;;;;;;19.00;54.00;;;;;;5022967;28;42960;-73
2022/01/04 03:26:23;;;;;;;;;;;19.00;54.10;;;;;;5023067;28;43116;-73
2022/01/04 03:28:49;;;;;;;;;;;19.00;54.10;;;;;;5023785;28;43027;-73
2022/01/04 03:31:14;;;;;;;;;;;19.00;54.10;;;;;;5026421;28;43889;-73
2022/01/04 03:33:40;;;;;;;;;;;19.00;54.20;;;;;;5026813;28;42964;-74
2022/01/04 03:36:06;;;;;;;;;;;19.00;54.10;;;;;;5025815;28;43994;-73
2022/01/04 03:38:31;;;;;;;;;;;19.00;54.40;;;;;;5026803;28;43109;-72
2022/01/04 03:40:57;;;;;;;;;;;19.00;54.20;;;;;;5026797;28;44027;-73
2022/01/04 03:43:22;;;;;;;;;;;19.00;54.20;;;;;;5027058;28;42806;-72
2022/01/04 03:45:48;;;;;;;;;;;18.90;54.60;;;;;;5026926;28;42821;-71
2022/01/04 03:48:14;;;;;;;;;;;18.90;54.30;;;;;;5026748;28;43279;-73
2022/01/04 03:50:40;;;;;;;;;;;19.00;54.50;;;;;;5026568;28;43525;-73
2022/01/04 03:53:06;;;;;;;;;;;19.00;54.20;;;;;;5025391;28;43164;-78
2022/01/04 03:55:31;;;;;;;;;;;19.80;54.60;;;;;;5024901;28;43395;-73
2022/01/04 03:57:57;;;;;;;;;;;19.00;54.80;;;;;;5013283;28;43536;-74
2022/01/04 04:00:22;;;;;;;;;;;18.90;54.20;;;;;;5023180;28;43170;-74
2022/01/04 04:02:48;;;;;;;;;;;19.00;54.00;;;;;;5026014;28;42971;-73
2022/01/04 04:05:15;;;;;;;;;;;18.90;54.00;;;;;;5025999;28;43412;-73
2022/01/04 04:07:41;;;;;;;;;;;18.90;54.00;;;;;;5027111;28;43051;-73
2022/01/04 04:10:07;;;;;;;;;;;18.90;53.90;;;;;;5026502;28;42932;-74
2022/01/04 04:12:32;;;;;;;;;;;18.90;53.90;;;;;;5027144;28;43129;-74
2022/01/04 04:14:58;;;;;;;;;;;18.90;54.00;;;;;;5026265;28;43731;-72
2022/01/04 04:17:24;;;;;;;;;;;18.90;53.90;;;;;;5006255;28;42969;-73
2022/01/04 04:19:49;;;;;;;;;;;18.90;54.10;;;;;;5022378;28;43040;-73
2022/01/04 04:22:15;;;;;;;;;;;19.10;54.20;;;;;;5025450;28;43092;-73
2022/01/04 04:24:41;;;;;;;;;;;19.20;54.50;;;;;;5025463;28;43225;-74
2022/01/04 04:27:07;;;;;;;;;;;19.20;54.50;;;;;;5025424;28;42985;-76
2022/01/04 04:29:33;;;;;;;;;;;18.90;54.00;;;;;;5025645;28;43135;-73
2022/01/04 04:31:58;;;;;;;;;;;18.90;54.00;;;;;;5025625;28;42994;-73
2022/01/04 04:34:24;;;;;;;;;;;18.90;54.50;;;;;;5024584;28;43871;-72
2022/01/04 04:36:49;;;;;;;;;;;18.90;54.30;;;;;;5024635;28;43133;-73
2022/01/04 04:39:15;;;;;;;;;;;18.80;54.30;;;;;;5024845;28;42971;-72
2022/01/04 04:41:40;;;;;;;;;;;18.90;54.50;;;;;;5008492;28;43139;-72
2022/01/04 04:44:06;;;;;;;;;;;18.90;54.50;;;;;;5024005;28;43989;-72
2022/01/04 04:46:32;;;;;;;;;;;18.90;54.20;;;;;;5025924;28;43650;-72
2022/01/04 04:48:57;;;;;;;;;;;18.90;54.30;;;;;;5025948;28;43713;-72
2022/01/04 04:51:23;;;;;;;;;;;18.90;54.20;;;;;;5024904;28;43095;-72
2022/01/04 04:53:48;;;;;;;;;;;18.90;54.50;;;;;;5025586;28;44110;-74
2022/01/04 04:56:14;;;;;;;;;;;18.90;54.40;;;;;;5025188;28;42902;-72
2022/01/04 04:58:39;;;;;;;;;;;18.90;54.50;;;;;;5026084;28;43010;-72
2022/01/04 05:01:05;;;;;;;;;;;18.90;54.90;;;;;;5025089;28;43018;-72
2022/01/04 05:03:30;;;;;;;;;;;18.90;54.80;;;;;;5025622;28;43494;-72
2022/01/04 05:05:56;;;;;;;;;;;18.90;54.60;;;;;;5024410;28;43333;-72
2022/01/04 05:08:21;;;;;;;;;;;18.90;54.30;;;;;;5025150;28;42973;-73
2022/01/04 05:10:47;;;;;;;;;;;18.90;54.30;;;;;;5024632;28;43403;-72
2022/01/04 05:13:12;;;;;;;;;;;18.90;54.30;;;;;;5006964;28;45754;-72
2022/01/04 05:15:38;;;;;;;;;;;18.90;54.30;;;;;;5021874;28;43050;-72
2022/01/04 05:18:03;;;;;;;;;;;18.90;54.30;;;;;;5020510;28;43027;-73
2022/01/04 05:20:29;;;;;;;;;;;18.90;54.50;;;;;;5007419;28;43161;-72
2022/01/04 05:22:54;;;;;;;;;;;18.80;54.40;;;;;;5024701;28;43371;-72
2022/01/04 05:25:20;;;;;;;;;;;18.90;54.60;;;;;;5023568;28;43078;-72
2022/01/04 05:27:45;;;;;;;;;;;18.90;54.50;;;;;;5024341;28;42950;-73
2022/01/04 05:30:11;;;;;;;;;;;18.90;54.30;;;;;;5024600;28;43128;-74
2022/01/04 05:32:37;;;;;;;;;;;18.80;54.30;;;;;;5025011;28;43487;-71
2022/01/04 05:35:02;;;;;;;;;;;18.90;54.30;;;;;;5024192;28;42949;-72
2022/01/04 05:37:28;;;;;;;;;;;18.90;54.30;;;;;;5023974;28;42937;-73
2022/01/04 05:39:53;;;;;;;;;;;19.10;54.50;;;;;;5024470;28;42960;-72
2022/01/04 05:42:19;;;;;;;;;;;18.90;54.40;;;;;;5024146;28;42933;-72
2022/01/04 05:44:45;;;;;;;;;;;18.90;54.30;;;;;;5024291;28;42914;-72
2022/01/04 05:47:10;;;;;;;;;;;18.80;53.70;;;;;;5023212;28;43933;-73
2022/01/04 05:49:37;;;;;;;;;;;18.90;54.50;;;;;;5023022;28;43016;-73
2022/01/04 05:52:04;;;;;;;;;;;18.90;54.40;;;;;;5020979;28;43080;-72
2022/01/04 05:54:30;;;;;;;;;;;18.80;54.30;;;;;;5024534;28;42979;-72
2022/01/04 05:56:55;;;;;;;;;;;18.90;54.60;;;;;;5023953;28;43570;-71
2022/01/04 05:59:21;;;;;;;;;;;18.80;54.30;;;;;;5023990;28;42973;-72
2022/01/04 06:01:46;;;;;;;;;;;18.80;54.50;;;;;;5024545;28;43249;-72
2022/01/04 06:04:12;;;;;;;;;;;18.80;54.20;;;;;;5005708;28;42878;-73
2022/01/04 06:06:40;;;;;;;;;;;18.80;54.30;;;;;;5022931;28;43685;-72
2022/01/04 06:09:07;;;;;;;;;;;18.80;54.30;;;;;;5023407;28;42975;-72
2022/01/04 06:11:55;;;;;;;;;;;18.80;54.30;;;;;;5023557;28;42841;-72
2022/01/04 06:17:06;;;;;;;;;;;18.80;54.20;;;;;;5023086;28;43327;-72
2022/01/04 06:19:32;;;;;;;;;;;18.90;54.40;;;;;;5023523;28;43022;-73
2022/01/04 06:21:58;;;;;;;;;;;16.80;53.30;;;;;;5022133;28;43499;-73
2022/01/04 06:24:24;;;;;;;;;;;18.80;54.30;;;;;;5023422;28;42913;-74
2022/01/04 06:26:49;;;;;;;;;;;18.80;54.50;;;;;;5025117;28;43063;-72
2022/01/04 06:29:15;;;;;;;;;;;18.80;54.50;;;;;;5023238;28;43177;-73
2022/01/04 06:31:41;;;;;;;;;;;18.80;54.30;;;;;;5024243;28;43157;-73
2022/01/04 06:34:06;;;;;;;;;;;18.80;54.30;;;;;;5023289;28;43385;-77
2022/01/04 06:36:32;;;;;;;;;;;18.80;54.40;;;;;;5023659;28;43613;-72
2022/01/04 06:38:58;;;;;;;;;;;18.80;54.30;;;;;;5023538;28;43012;-72
2022/01/04 06:41:23;;;;;;;;;;;18.80;54.30;;;;;;5005313;28;43055;-72
2022/01/04 06:43:49;;;;;;;;;;;18.80;54.30;;;;;;5023698;28;43332;-70
2022/01/04 06:46:14;;;;;;;;;;;18.80;54.30;;;;;;5023220;28;43887;-70
2022/01/04 06:48:41;;;;;;;;;;;18.80;54.30;;;;;;5023710;28;42948;-71
2022/01/04 06:51:06;;;;;;;;;;;18.80;54.30;;;;;;5022070;28;43295;-70
2022/01/04 06:53:32;;;;;;;;;;;18.80;54.30;;;;;;5022340;28;43104;-70
2022/01/04 06:55:58;;;;;;;;;;;18.80;54.20;;;;;;4997525;28;43025;-72
2022/01/04 06:58:23;;;;;;;;;;;18.70;54.20;;;;;;5004432;28;43014;-74
2022/01/04 07:00:49;;;;;;;;;;;18.70;54.60;;;;;;5004818;28;43586;-71
2022/01/04 07:03:14;;;;;;;;;;;18.90;54.60;;;;;;5005308;28;42993;-71
2022/01/04 07:05:40;;;;;;;;;;;18.70;54.20;;;;;;5006865;28;43429;-71
2022/01/04 07:08:05;;;;;;;;;;;18.80;54.40;;;;;;5008655;28;43016;-75
2022/01/04 07:10:31;;;;;;;;;;;18.70;54.20;;;;;;5007937;28;43985;-71
2022/01/04 07:12:56;;;;;;;;;;;18.70;54.20;;;;;;5024261;28;42988;-72
2022/01/04 07:15:22;;;;;;;;;;;18.70;54.20;;;;;;5028468;28;43417;-74
2022/01/04 07:17:47;;;;;;;;;;;18.70;54.20;;;;;;5027551;28;42953;-75
2022/01/04 07:20:13;;;;;;;;;;;18.70;54.40;;;;;;5027738;28;42985;-70
2022/01/04 07:22:39;;;;;;;;;;;18.70;54.30;;;;;;5028352;28;42919;-72
2022/01/04 07:25:05;;;;;;;;;;;18.70;54.30;;;;;;5020632;28;43276;-72
2022/01/04 07:27:30;;;;;;;;;;;18.70;54.20;;;;;;5010913;28;42846;-73
2022/01/04 07:29:56;;;;;;;;;;;18.70;54.20;;;;;;5007006;28;42918;-72
2022/01/04 07:32:22;;;;;;;;;;;18.70;54.20;;;;;;5008109;28;43159;-71
2022/01/04 07:34:47;;;;;;;;;;;18.70;54.20;;;;;;5007504;28;43736;-71
2022/01/04 07:37:13;;;;;;;;;;;18.60;54.30;;;;;;5008145;28;43065;-71
2022/01/04 07:39:39;;;;;;;;;;;18.70;54.20;;;;;;5007754;28;42949;-71
2022/01/04 07:42:05;;;;;;;;;;;18.70;54.30;;;;;;5013081;28;43176;-71
2022/01/04 07:44:31;;;;;;;;;;;18.70;54.30;;;;;;5014042;28;42972;-72
2022/01/04 07:46:56;;;;;;;;;;;18.70;54.20;;;;;;5010453;28;43063;-71
2022/01/04 07:49:22;;;;;;;;;;;18.70;54.50;;;;;;5020718;28;43068;-71
2022/01/04 07:51:47;;;;;;;;;;;18.70;54.20;;;;;;5018666;28;42924;-71
2022/01/04 07:54:13;;;;;;;;;;;18.60;54.30;;;;;;5019720;28;42992;-70
2022/01/04 07:56:39;;;;;;;;;;;18.70;54.20;;;;;;5016753;28;42988;-70
2022/01/04 07:59:04;;;;;;;;;;;18.60;54.70;;;;;;5004059;28;43512;-71
2022/01/04 08:01:30;;;;;;;;;;;18.60;54.20;;;;;;5013992;28;43067;-76
2022/01/04 08:03:56;;;;;;;;;;;18.70;54.20;;;;;;5023110;28;43512;-70
2022/01/04 08:06:22;;;;;;;;;;;18.60;54.20;;;;;;5027740;28;42984;-71
2022/01/04 08:08:48;;;;;;;;;;;18.70;54.30;;;;;;5027140;28;43407;-70
2022/01/04 08:11:13;;;;;;;;;;;18.60;54.20;;;;;;5027530;28;42782;-70
2022/01/04 08:13:39;;;;;;;;;;;19.30;54.50;;;;;;5027092;28;42915;-71
2022/01/04 08:16:04;;;;;;;;;;;19.20;54.50;;;;;;5023442;28;42998;-70
2022/01/04 08:18:30;;;;;;;;;;;18.50;50.90;;;;;;5014037;28;42917;-69
2022/01/04 08:20:57;;;;;;;;;;;17.80;55.00;;;;;;5013355;28;43169;-73
2022/01/04 08:23:26;;;;;;;;;;;17.50;66.20;;;;;;5019492;28;42966;-70
2022/01/04 08:25:52;;;;;;;;;;;;;;;;;;5011657;28;42938;-70
2022/01/04 08:28:17;;;;;;;;;;;16.30;75.90;;;;;;5014624;28;43683;-70
2022/01/04 08:30:43;;;;;;;;;;;15.70;47.60;;;;;;5017038;28;42908;-71
2022/01/04 08:33:09;;;;;;;;;;;15.40;48.40;;;;;;5007802;28;45828;-72
2022/01/04 08:35:34;;;;;;;;;;;15.30;50.60;;;;;;5018271;28;43098;-73
2022/01/04 08:38:00;;;;;;;;;;;15.40;52.70;;;;;;5006420;28;42867;-73
2022/01/04 08:40:26;;;;;;;;;;;;;;;;;;5004117;28;43012;-73
2022/01/04 08:42:53;;;;;;;;;;;15.10;47.40;;;;;;5005779;28;42956;-74
2022/01/04 08:45:21;;;;;;;;;;;15.10;48.30;;;;;;5005548;28;42871;-73
2022/01/04 08:47:46;;;;;;;;;;;15.00;48.60;;;;;;5006641;28;43849;-74
2022/01/04 08:50:14;;;;;;;;;;;14.80;47.40;;;;;;5004505;28;43068;-76
2022/01/04 08:52:40;;;;;;;;;;;14.80;48.40;;;;;;5005013;28;44654;-72
2022/01/04 08:55:06;;;;;;;;;;;14.90;48.30;;;;;;5003747;28;43179;-75
2022/01/04 08:57:32;;;;;;;;;;;15.40;48.80;;;;;;5013272;28;43623;-75
2022/01/04 08:59:57;;;;;;;;;;;15.80;48.80;;;;;;5024249;28;43173;-74
2022/01/04 09:02:23;;;;;;;;;;;16.10;48.60;;;;;;5023374;28;42944;-74
2022/01/04 09:04:49;;;;;;;;;;;16.30;48.60;;;;;;5024865;28;42865;-74
2022/01/04 09:07:15;;;;;;;;;;;16.50;48.30;;;;;;5025128;28;43758;-73
2022/01/04 09:09:40;;;;;;;;;;;16.60;48.20;;;;;;5025267;28;42916;-74
2022/01/04 09:12:06;;;;;;;;;;;16.70;48.20;;;;;;5025814;28;42870;-73
2022/01/04 09:20:00;;;;;;;;;;;17.00;48.20;;;;;;5024709;28;42993;-73
2022/01/04 09:22:25;;;;;;;;;;;17.00;48.30;;;;;;5019260;28;44080;-73
2022/01/04 09:24:51;;;;;;;;;;;17.10;48.30;;;;;;5025896;28;42842;-73
2022/01/04 09:27:16;;;;;;;;;;;17.20;48.30;;;;;;5023116;28;43837;-73
2022/01/04 09:29:42;;;;;;;;;;;17.20;48.40;;;;;;5008396;28;42911;-71
2022/01/04 09:32:13;;;;;;;;;;;17.30;48.60;;;;;;5011374;28;43082;-79
2022/01/04 09:34:39;;;;;;;;;;;17.40;48.70;;;;;;5020006;28;43028;-72
2022/01/04 09:37:04;;;;;;;;;;;17.50;48.80;;;;;;5017081;28;43230;-71
2022/01/04 09:39:30;;;;;;;;;;;17.50;48.90;;;;;;5017969;28;42999;-73
2022/01/04 09:41:56;;;;;;;;;;;17.50;49.00;;;;;;5016901;28;42959;-70
2022/01/04 09:44:22;;;;;;;;;;;17.50;49.10;;;;;;5015882;28;43051;-71
2022/01/04 09:46:48;;;;;;;;;;;17.50;49.20;;;;;;5018488;28;43610;-71
2022/01/04 09:49:14;;;;;;;;;;;17.60;49.30;;;;;;5014233;28;43068;-71
2022/01/04 09:51:40;;;;;;;;;;;17.60;49.40;;;;;;5014280;28;43015;-71
2022/01/04 09:54:06;;;;;;;;;;;17.60;49.40;;;;;;5015245;28;42946;-70
2022/01/04 09:56:32;;;;;;;;;;;17.70;49.50;;;;;;5013099;28;42969;-70
2022/01/04 09:58:57;;;;;;;;;;;17.80;49.70;;;;;;5004459;28;42904;-70
2022/01/04 10:01:24;;;;;;;;;;;17.80;49.70;;;;;;5011027;28;43052;-70
2022/01/04 10:03:50;;;;;;;;;;;17.90;49.90;;;;;;5013883;28;42978;-72
2022/01/04 10:06:16;;;;;;;;;;;17.90;50.00;;;;;;5013296;28;43330;-71
2022/01/04 10:09:03;;;;;;;;;;;17.90;49.80;;;;;;5024855;28;43039;-73
2022/01/04 10:11:33;;;;;;;;;;;18.00;49.90;;;;;;5023828;28;43078;-73
2022/01/04 10:13:59;;;;;;;;;;;18.10;50.20;;;;;;5011567;28;42967;-70
2022/01/04 10:16:25;;;;;;;;;;;18.10;50.40;;;;;;5011241;28;43033;-71
2022/01/04 10:18:51;;;;;;;;;;;18.10;50.40;;;;;;5016502;28;42841;-70
2022/01/04 10:21:17;;;;;;;;;;;18.20;50.50;;;;;;4997323;28;44942;-70
2022/01/04 10:23:47;;;;;;;;;;;18.20;50.50;;;;;;5017168;28;42975;-70
2022/01/04 10:26:12;;;;;;;;;;;18.20;50.50;;;;;;5008227;28;43202;-70
2022/01/04 10:28:40;;;;;;;;;;;18.20;50.50;;;;;;5020508;28;43064;-70
2022/01/04 10:31:09;;;;;;;;;;;18.20;50.50;;;;;;5016967;28;42977;-70
2022/01/04 10:33:36;;;;;;;;;;;18.20;50.60;;;;;;5020449;28;42960;-71
2022/01/04 10:36:08;;;;;;;;;;;18.20;50.60;;;;;;5016722;28;43309;-80
2022/01/04 10:38:35;;;;;;;;;;;18.20;50.60;;;;;;5018564;28;43174;-70
2022/01/04 10:41:01;;;;;;;;;;;18.20;50.60;;;;;;5016643;28;43561;-75
2022/01/04 10:43:37;;;;;;;;;;;18.20;50.70;;;;;;5013407;28;43002;-72
2022/01/04 10:46:04;;;;;;;;;;;18.30;50.70;;;;;;5003929;28;43241;-71
2022/01/04 10:48:31;;;;;;;;;;;18.30;50.70;;;;;;5023572;28;42940;-71
2022/01/04 10:50:58;;;;;;;;;;;18.30;50.80;;;;;;5023343;28;42960;-71
2022/01/04 10:53:27;;;;;;;;;;;18.30;50.90;;;;;;5012507;28;43525;-71
2022/01/04 10:55:57;;;;;;;;;;;18.30;50.90;;;;;;5017916;28;43026;-71
2022/01/04 10:58:27;;;;;;;;;;;18.30;51.00;;;;;;5010380;28;42998;-72
2022/01/04 11:00:54;;;;;;;;;;;18.30;51.10;;;;;;5014390;28;43648;-72
2022/01/04 11:03:23;;;;;;;;;;;18.30;49.80;;;;;;5010941;28;43019;-72
2022/01/04 11:05:53;;;;;;;;;;;18.00;48.40;;;;;;5017975;28;43939;-71
2022/01/04 11:08:18;;;;;;;;;;;17.80;47.60;;;;;;5018381;28;43124;-78
2022/01/04 11:10:44;;;;;;;;;;;17.50;47.20;;;;;;5014428;28;43133;-72
2022/01/04 11:13:10;;;;;;;;;;;17.30;47.60;;;;;;5017742;28;42983;-78
2022/01/04 11:15:35;;;;;;;;;;;17.40;47.80;;;;;;5010811;28;42947;-72
2022/01/04 11:18:01;;;;;;;;;;;17.20;46.80;;;;;;5013867;28;43767;-81
2022/01/04 11:20:26;;;;;;;;;;;17.00;47.00;;;;;;5014077;28;43468;-71
2022/01/04 11:22:55;;;;;;;;;;;17.00;47.00;;;;;;5016288;28;43022;-72
2022/01/04 11:25:22;;;;;;;;;;;17.10;47.80;;;;;;5015455;28;42980;-73
2022/01/04 11:27:47;;;;;;;;;;;17.30;47.90;;;;;;5012350;28;43294;-70
2022/01/04 11:30:13;;;;;;;;;;;17.50;48.20;;;;;;5013176;28;44019;-70
2022/01/04 11:32:41;;;;;;;;;;;17.60;48.30;;;;;;5012003;28;42988;-70
2022/01/04 11:35:09;;;;;;;;;;;17.80;48.60;;;;;;5010185;28;43497;-72
2022/01/04 11:37:35;;;;;;;;;;;17.80;48.70;;;;;;5015438;28;43072;-70
2022/01/04 11:40:20;;;;;;;;;;;17.90;48.90;;;;;;5013063;28;43345;-70
2022/01/04 11:42:46;;;;;;;;;;;18.00;49.00;;;;;;5012794;28;43986;-69
2022/01/04 11:45:11;;;;;;;;;;;18.10;49.10;;;;;;5012965;28;43887;-70
2022/01/04 11:47:37;;;;;;;;;;;18.10;49.00;;;;;;5012563;28;43033;-75
2022/01/04 11:50:13;;;;;;;;;;;18.20;49.10;;;;;;5017800;28;43180;-70
2022/01/04 11:52:45;;;;;;;;;;;18.20;49.10;;;;;;5015318;28;44793;-70
2022/01/04 11:55:15;;;;;;;;;;;18.30;49.20;;;;;;5019224;28;43693;-73
2022/01/04 11:57:41;;;;;;;;;;;18.40;49.40;;;;;;5017327;28;42978;-70
2022/01/04 12:00:07;;;;;;;;;;;18.40;49.60;;;;;;5013992;28;44428;-74
2022/01/04 12:02:35;;;;;;;;;;;18.40;49.80;;;;;;5016810;28;42991;-71
2022/01/04 12:05:04;;;;;;;;;;;18.40;50.00;;;;;;5016764;28;44432;-71
2022/01/04 12:07:38;;;;;;;;;;;18.40;50.10;;;;;;5026021;28;42834;-71
2022/01/04 12:10:19;;;;;;;;;;;18.40;50.20;;;;;;5026473;28;42980;-70
2022/01/04 12:12:57;;;;;;;;;;;18.50;50.30;;;;;;5026461;28;42801;-75
2022/01/04 12:15:35;;;;;;;;;;;18.50;50.30;;;;;;5025801;28;43057;-72
2022/01/04 12:18:07;;;;;;;;;;;18.50;50.40;;;;;;5026067;28;43061;-76
2022/01/04 12:20:42;;;;;;;;;;;18.50;50.40;;;;;;5025684;28;43118;-71
2022/01/04 12:23:23;;;;;;;;;;;18.50;50.50;;;;;;5026023;28;42994;-71
2022/01/04 12:26:12;;;;;;;;;;;18.50;50.50;;;;;;5025608;28;43646;-70
2022/01/04 12:28:37;;;;;;;;;;;18.50;50.60;;;;;;5024708;28;43363;-71
2022/01/04 12:33:47;;;;;;;;;;;18.50;50.60;;;;;;5011607;28;43248;-72
2022/01/04 12:36:26;;;;;;;;;;;18.60;50.70;;;;;;5012516;28;43247;-76
2022/01/04 12:38:52;;;;;;;;;;;18.60;50.60;;;;;;5012823;28;42985;-73
2022/01/04 12:41:19;;;;;;;;;;;18.60;50.60;;;;;;5023902;28;42841;-73
2022/01/04 12:43:46;;;;;;;;;;;18.60;50.60;;;;;;5024801;28;42973;-73
2022/01/04 12:46:13;;;;;;;;;;;18.60;50.60;;;;;;5025190;28;42989;-74
2022/01/04 12:48:49;;;;;;;;;;;18.60;50.60;;;;;;5024307;28;43029;-74
2022/01/04 12:51:27;;;;;;;;;;;18.60;50.60;;;;;;5021268;28;43492;-73
2022/01/04 12:53:53;;;;;;;;;;;18.60;50.70;;;;;;5018788;28;42942;-73
2022/01/04 12:56:18;;;;;;;;;;;18.60;50.70;;;;;;5016256;28;44008;-73
2022/01/04 12:58:44;;;;;;;;;;;18.60;50.70;;;;;;5018015;28;42967;-71
2022/01/04 13:01:13;;;;;;;;;;;18.60;50.80;;;;;;5012654;28;43716;-73
2022/01/04 13:03:39;;;;;;;;;;;18.60;50.80;;;;;;5017330;28;43064;-72
2022/01/04 13:06:05;;;;;;;;;;;18.70;50.80;;;;;;5009946;28;43004;-72
2022/01/04 13:08:31;;;;;;;;;;;18.70;50.90;;;;;;5019786;28;42999;-74
2022/01/04 13:11:07;;;;;;;;;;;18.70;50.90;;;;;;5010361;28;43035;-73
2022/01/04 13:13:33;;;;;;;;;;;18.70;50.80;;;;;;5013296;28;42892;-72
2022/01/04 13:16:17;;;;;;;;;;;18.70;50.90;;;;;;5018980;28;44976;-72
2022/01/04 13:18:42;;;;;;;;;;;18.70;50.90;;;;;;5008457;28;42954;-73
2022/01/04 13:21:08;;;;;;;;;;;18.70;50.90;;;;;;5018431;28;43801;-72
2022/01/04 13:23:37;;;;;;;;;;;18.70;50.90;;;;;;5024725;28;42984;-72
2022/01/04 13:26:02;;;;;;;;;;;18.70;50.90;;;;;;5009557;28;43006;-73
2022/01/04 13:28:28;;;;;;;;;;;18.70;50.90;;;;;;5017049;28;42901;-72
2022/01/04 13:30:54;;;;;;;;;;;18.70;50.90;;;;;;5017948;28;43068;-75
2022/01/04 13:33:23;;;;;;;;;;;18.60;51.40;;;;;;5016312;28;43068;-74
2022/01/04 13:35:49;;;;;;;;;;;18.70;50.90;;;;;;5017002;28;43770;-72
2022/01/04 13:38:21;;;;;;;;;;;18.70;50.90;;;;;;5022268;28;43139;-72
2022/01/04 13:40:48;;;;;;;;;;;18.70;50.90;;;;;;5017878;28;43741;-73
2022/01/04 13:43:18;;;;;;;;;;;18.70;50.90;;;;;;5011673;28;43083;-73
2022/01/04 13:45:44;;;;;;;;;;;18.70;50.90;;;;;;5011254;28;43009;-72
2022/01/04 13:48:10;;;;;;;;;;;18.70;50.90;;;;;;5020543;28;43005;-72
2022/01/04 13:50:36;;;;;;;;;;;18.80;50.90;;;;;;5007187;28;43826;-71
2022/01/04 13:53:01;;;;;;;;;;;18.80;50.90;;;;;;5018235;28;43062;-73
2022/01/04 13:55:41;;;;;;;;;;;18.80;50.90;;;;;;5012756;28;43035;-73
2022/01/04 13:58:09;;;;;;;;;;;18.80;51.10;;;;;;4990721;28;42977;-72
2022/01/04 14:00:35;;;;;;;;;;;18.80;51.00;;;;;;5021100;28;42854;-73
2022/01/04 14:03:01;;;;;;;;;;;18.80;51.00;;;;;;5011230;28;43110;-75
2022/01/04 14:05:34;;;;;;;;;;;18.80;51.00;;;;;;5013832;28;42945;-73
2022/01/04 14:07:59;;;;;;;;;;;18.80;50.90;;;;;;5019668;28;43192;-73
2022/01/04 14:10:44;;;;;;;;;;;18.80;50.90;;;;;;5008718;28;42998;-72
2022/01/04 14:13:28;;;;;;;;;;;18.80;51.00;;;;;;5017530;28;42933;-73
2022/01/04 14:16:06;;;;;;;;;;;18.80;51.00;;;;;;5018869;28;42980;-71
2022/01/04 14:18:32;;;;;;;;;;;18.80;51.00;;;;;;5008692;28;42860;-73
2022/01/04 14:20:57;;;;;;;;;;;18.80;50.90;;;;;;5019137;28;42932;-73
2022/01/04 14:23:32;;;;;;;;;;;18.80;51.00;;;;;;4996666;28;43026;-71
2022/01/04 14:26:05;;;;;;;;;;;18.80;50.90;;;;;;5010600;28;42838;-72
2022/01/04 14:28:31;;;;;;;;;;;18.90;51.00;;;;;;5021794;28;42782;-71
2022/01/04 14:30:56;;;;;;;;;;;18.80;51.00;;;;;;5010812;28;43141;-72
2022/01/04 14:33:22;;;;;;;;;;;18.90;51.00;;;;;;5016098;28;42876;-72